createdAt,value
2018-01-30T00:00:44.167Z,100355.77
2018-01-30T00:03:11.997Z,100357.95
2018-01-30T00:05:40.017Z,100357.10
2018-01-30T00:08:07.819Z,100356.70
2018-01-30T00:10:36.127Z,100355.45
2018-01-30T00:13:04.412Z,100360.27
2018-01-30T00:15:32.350Z,100349.81
2018-01-30T00:18:01.169Z,100349.81
2018-01-30T00:20:29.107Z,100358.55
2018-01-30T00:22:57.300Z,100352.00
2018-01-30T00:25:25.964Z,100355.52
2018-01-30T00:27:53.929Z,100353.76
2018-01-30T00:30:22.118Z,100352.95
2018-01-30T00:32:50.135Z,100351.63
2018-01-30T00:35:17.850Z,100356.88
2018-01-30T00:37:46.148Z,100351.22
2018-01-30T00:40:14.955Z,100347.28
2018-01-30T00:42:43.010Z,100349.02
2018-01-30T00:45:11.286Z,100349.49
2018-01-30T00:47:39.364Z,100349.02
2018-01-30T00:50:07.139Z,100345.99
2018-01-30T00:52:35.084Z,100335.03
2018-01-30T00:55:03.161Z,100342.05
2018-01-30T00:57:31.491Z,100346.83
2018-01-30T00:59:59.555Z,100348.59
2018-01-30T01:02:27.777Z,100341.59
2018-01-30T01:04:55.964Z,100336.80
2018-01-30T01:07:24.236Z,100331.98
2018-01-30T01:09:52.428Z,100332.89
2018-01-30T01:12:20.538Z,100328.53
2018-01-30T01:14:48.550Z,100334.25
2018-01-30T01:17:16.289Z,100329.91
2018-01-30T01:19:44.456Z,100327.34
2018-01-30T01:22:12.419Z,100326.03
2018-01-30T01:24:40.612Z,100326.91
2018-01-30T01:27:08.555Z,100327.81
2018-01-30T01:29:36.746Z,100323.43
2018-01-30T01:32:04.719Z,100325.14
2018-01-30T01:34:33.008Z,100315.59
2018-01-30T01:37:01.103Z,100319.12
2018-01-30T01:39:29.066Z,100321.29
2018-01-30T01:41:57.536Z,100317.77
2018-01-30T01:44:25.595Z,100305.12
2018-01-30T01:46:53.733Z,100303.36
2018-01-30T01:49:32.695Z,100305.09
2018-01-30T01:52:00.636Z,100300.33
2018-01-30T01:54:28.798Z,100302.07
2018-01-30T01:56:57.650Z,100299.88
2018-01-30T01:59:25.404Z,100295.06
2018-01-30T02:01:54.145Z,100289.86
2018-01-30T02:04:22.209Z,100288.14
2018-01-30T02:06:50.377Z,100284.19
2018-01-30T02:09:18.593Z,100286.36
2018-01-30T02:11:46.974Z,100280.27
2018-01-30T02:14:15.124Z,100272.41
2018-01-30T02:16:43.420Z,100271.98
2018-01-30T02:19:11.654Z,100270.64
2018-01-30T02:21:39.744Z,100270.64
2018-01-30T02:24:07.712Z,100267.56
2018-01-30T02:26:36.013Z,100262.35
2018-01-30T02:29:04.142Z,100260.59
2018-01-30T02:31:32.235Z,100263.20
2018-01-30T02:34:00.397Z,100255.34
2018-01-30T02:36:28.390Z,100255.34
2018-01-30T02:38:56.367Z,100248.83
2018-01-30T02:41:24.761Z,100244.47
2018-01-30T02:43:52.524Z,100233.10
2018-01-30T02:46:20.352Z,100230.49
2018-01-30T02:48:48.116Z,100228.75
2018-01-30T02:51:16.532Z,100228.75
2018-01-30T02:53:44.675Z,100226.56
2018-01-30T02:56:12.640Z,100224.36
2018-01-30T02:58:40.504Z,100227.47
2018-01-30T03:01:08.482Z,100222.63
2018-01-30T03:03:36.768Z,100227.44
2018-01-30T03:06:05.144Z,100224.82
2018-01-30T03:08:33.193Z,100228.77
2018-01-30T03:11:01.992Z,100223.11
2018-01-30T03:13:30.283Z,100224.02
2018-01-30T03:15:58.669Z,100223.16
2018-01-30T03:18:27.038Z,100217.04
2018-01-30T03:20:55.324Z,100219.23
2018-01-30T03:23:23.270Z,100221.84
2018-01-30T03:25:51.278Z,100222.70
2018-01-30T03:28:19.037Z,100223.16
2018-01-30T03:30:47.093Z,100217.08
2018-01-30T03:33:15.350Z,100218.42
2018-01-30T03:35:43.290Z,100217.99
2018-01-30T03:38:11.627Z,100207.94
2018-01-30T03:40:39.994Z,100202.75
2018-01-30T03:43:08.144Z,100201.47
2018-01-30T03:45:36.301Z,100202.35
2018-01-30T03:48:04.212Z,100207.16
2018-01-30T03:50:32.659Z,100200.19
2018-01-30T03:53:00.954Z,100204.11
2018-01-30T03:55:29.023Z,100199.33
2018-01-30T03:57:57.153Z,100194.54
2018-01-30T04:00:25.344Z,100192.78
2018-01-30T04:02:54.236Z,100194.99
2018-01-30T04:05:22.427Z,100191.52
2018-01-30T04:07:50.166Z,100192.83
2018-01-30T04:10:18.131Z,100189.78
2018-01-30T04:12:45.836Z,100191.97
2018-01-30T04:15:13.609Z,100195.90
2018-01-30T04:17:41.977Z,100193.28
2018-01-30T04:20:10.171Z,100194.56
2018-01-30T04:22:38.416Z,100200.23
2018-01-30T04:25:06.684Z,100198.95
2018-01-30T04:27:34.742Z,100198.95
2018-01-30T04:30:03.867Z,100200.23
2018-01-30T04:32:31.998Z,100194.11
2018-01-30T04:35:00.264Z,100196.73
2018-01-30T04:37:28.393Z,100197.61
2018-01-30T04:39:57.678Z,100202.39
2018-01-30T04:42:25.456Z,100197.19
2018-01-30T04:44:53.819Z,100198.06
2018-01-30T04:47:22.197Z,100198.92
2018-01-30T04:49:50.430Z,100201.98
2018-01-30T04:52:18.366Z,100212.47
2018-01-30T04:54:46.128Z,100216.39
2018-01-30T04:57:13.895Z,100218.58
2018-01-30T04:59:42.020Z,100211.63
2018-01-30T05:02:10.083Z,100209.47
2018-01-30T05:04:38.384Z,100215.16
2018-01-30T05:07:06.457Z,100211.26
2018-01-30T05:09:34.729Z,100211.63
2018-01-30T05:12:02.770Z,100218.63
2018-01-30T05:14:30.737Z,100218.20
2018-01-30T05:16:58.926Z,100226.09
2018-01-30T05:19:27.118Z,100221.28
2018-01-30T05:21:55.357Z,100214.72
2018-01-30T05:24:23.585Z,100213.42
2018-01-30T05:26:51.945Z,100220.39
2018-01-30T05:29:20.215Z,100220.77
2018-01-30T05:31:48.345Z,100219.47
2018-01-30T05:34:16.216Z,100221.20
2018-01-30T05:36:44.287Z,100210.70
2018-01-30T05:39:12.320Z,100205.89
2018-01-30T05:41:40.122Z,100215.89
2018-01-30T05:44:07.951Z,100217.20
2018-01-30T05:46:36.207Z,100212.80
2018-01-30T05:49:04.593Z,100212.73
2018-01-30T05:51:32.368Z,100217.03
2018-01-30T05:54:00.423Z,100217.47
2018-01-30T05:56:28.487Z,100218.83
2018-01-30T05:58:56.259Z,100223.95
2018-01-30T06:01:24.325Z,100222.19
2018-01-30T06:03:53.200Z,100218.56
2018-01-30T06:06:21.139Z,100217.44
2018-01-30T06:08:49.354Z,100214.83
2018-01-30T06:11:17.228Z,100213.57
2018-01-30T06:13:45.304Z,100211.56
2018-01-30T06:16:13.251Z,100210.55
2018-01-30T06:18:41.322Z,100212.99
2018-01-30T06:21:09.204Z,100204.09
2018-01-30T06:23:38.098Z,100206.52
2018-01-30T06:26:06.010Z,100214.13
2018-01-30T06:28:33.728Z,100214.27
2018-01-30T06:31:01.495Z,100217.22
2018-01-30T06:33:29.435Z,100226.29
2018-01-30T06:35:57.328Z,100219.63
2018-01-30T06:38:25.696Z,100217.67
2018-01-30T06:40:53.781Z,100225.77
2018-01-30T06:43:22.021Z,100223.08
2018-01-30T06:45:50.063Z,100232.76
2018-01-30T06:48:17.807Z,100236.52
2018-01-30T06:50:46.063Z,100237.25
2018-01-30T06:53:13.830Z,100240.25
2018-01-30T06:55:41.587Z,100246.74
2018-01-30T06:58:09.715Z,100251.88
2018-01-30T07:00:37.908Z,100248.89
2018-01-30T07:03:05.799Z,100247.04
2018-01-30T07:05:34.177Z,100238.29
2018-01-30T07:08:03.257Z,100247.11
2018-01-30T07:10:31.497Z,100247.11
2018-01-30T07:12:59.319Z,100237.05
2018-01-30T07:15:28.008Z,100229.97
2018-01-30T07:17:56.689Z,100230.36
2018-01-30T07:20:24.757Z,100233.83
2018-01-30T07:22:52.599Z,100233.09
2018-01-30T07:25:20.641Z,100232.56
2018-01-30T07:27:48.358Z,100229.00
2018-01-30T07:30:16.122Z,100227.14
2018-01-30T07:32:44.193Z,100232.76
2018-01-30T07:35:12.004Z,100230.39
2018-01-30T07:37:40.519Z,100225.75
2018-01-30T07:40:08.460Z,100229.00
2018-01-30T07:42:36.169Z,100228.22
2018-01-30T07:45:04.262Z,100221.32
2018-01-30T07:47:32.234Z,100217.47
2018-01-30T07:50:00.076Z,100215.29
2018-01-30T07:52:28.434Z,100213.34
2018-01-30T07:54:56.812Z,100209.17
2018-01-30T07:57:24.588Z,100207.19
2018-01-30T07:59:52.615Z,100210.98
2018-01-30T08:02:20.818Z,100202.87
2018-01-30T08:04:49.431Z,100202.19
2018-01-30T08:07:17.801Z,100195.89
2018-01-30T08:09:45.878Z,100191.39
2018-01-30T08:12:13.987Z,100182.95
2018-01-30T08:14:42.005Z,100186.70
2018-01-30T08:17:10.445Z,100185.77
2018-01-30T08:19:40.305Z,100183.84
2018-01-30T08:22:08.552Z,100184.61
2018-01-30T08:24:36.446Z,100177.92
2018-01-30T08:27:05.459Z,100173.88
2018-01-30T08:29:33.528Z,100172.50
2018-01-30T08:32:01.616Z,100167.45
2018-01-30T08:34:29.647Z,100161.98
2018-01-30T08:36:58.523Z,100166.22
2018-01-30T08:39:26.448Z,100168.30
2018-01-30T08:41:55.086Z,100162.97
2018-01-30T08:44:23.045Z,100154.20
2018-01-30T08:46:51.957Z,100157.74
2018-01-30T08:49:20.073Z,100160.00
2018-01-30T08:51:47.991Z,100154.67
2018-01-30T08:54:15.749Z,100152.03
2018-01-30T08:56:43.556Z,100147.69
2018-01-30T08:59:11.590Z,100138.47
2018-01-30T09:01:39.394Z,100132.71
2018-01-30T09:04:07.479Z,100127.06
2018-01-30T09:06:35.188Z,100125.55
2018-01-30T09:09:02.955Z,100120.93
2018-01-30T09:11:31.309Z,100110.98
2018-01-30T09:13:59.396Z,100109.33
2018-01-30T09:16:27.673Z,100116.03
2018-01-30T09:18:55.640Z,100114.80
2018-01-30T09:21:23.626Z,100118.81
2018-01-30T09:23:51.448Z,100109.61
2018-01-30T09:26:19.584Z,100117.25
2018-01-30T09:28:47.246Z,100105.88
2018-01-30T09:31:15.283Z,100105.45
2018-01-30T09:33:43.060Z,100098.48
2018-01-30T09:36:11.099Z,100097.67
2018-01-30T09:38:39.070Z,100090.52
2018-01-30T09:41:06.968Z,100089.95
2018-01-30T09:43:34.819Z,100092.49
2018-01-30T09:46:03.461Z,100091.73
2018-01-30T09:48:31.760Z,100082.02
2018-01-30T09:50:59.832Z,100066.27
2018-01-30T09:53:28.085Z,100063.70
2018-01-30T09:55:56.908Z,100066.93
2018-01-30T09:58:26.691Z,100077.20
2018-01-30T10:00:54.445Z,100067.95
2018-01-30T10:03:22.496Z,100052.72
2018-01-30T10:05:50.463Z,100048.58
2018-01-30T10:08:18.188Z,100040.98
2018-01-30T10:10:46.445Z,100043.30
2018-01-30T10:13:14.384Z,100043.39
2018-01-30T10:15:42.089Z,100047.92
2018-01-30T10:18:09.847Z,100050.61
2018-01-30T10:20:39.009Z,100052.96
2018-01-30T10:23:06.973Z,100046.98
2018-01-30T10:25:34.988Z,100046.23
2018-01-30T10:28:02.829Z,100028.84
2018-01-30T10:30:30.703Z,100011.55
2018-01-30T10:32:59.860Z,100005.50
2018-01-30T10:35:28.603Z,99996.94
2018-01-30T10:37:56.584Z,99991.58
2018-01-30T10:40:24.826Z,99996.67
2018-01-30T10:42:52.810Z,100001.41
2018-01-30T10:45:20.839Z,99995.06
2018-01-30T10:47:48.564Z,99973.43
2018-01-30T10:50:17.269Z,99980.74
2018-01-30T10:52:45.435Z,99985.74
2018-01-30T10:55:13.526Z,99985.05
2018-01-30T10:57:41.433Z,99984.30
2018-01-30T11:00:09.208Z,99981.33
2018-01-30T11:02:39.117Z,99976.16
2018-01-30T11:05:06.895Z,99976.24
2018-01-30T11:07:35.031Z,99976.86
2018-01-30T11:10:03.329Z,99971.21
2018-01-30T11:12:31.140Z,99964.66
2018-01-30T11:14:58.926Z,99965.02
2018-01-30T11:17:27.096Z,99962.66
2018-01-30T11:19:55.305Z,99969.55
2018-01-30T11:22:23.454Z,99959.78
2018-01-30T11:24:51.145Z,99960.83
2018-01-30T11:27:19.258Z,99960.83
2018-01-30T11:29:47.901Z,99960.97
2018-01-30T11:32:16.016Z,99955.36
2018-01-30T11:34:44.336Z,99946.76
2018-01-30T11:37:12.298Z,99950.72
2018-01-30T11:39:40.864Z,99939.52
2018-01-30T11:42:08.562Z,99934.53
2018-01-30T11:44:36.329Z,99933.94
2018-01-30T11:47:04.097Z,99942.89
2018-01-30T11:49:33.181Z,99946.98
2018-01-30T11:52:01.412Z,99943.23
2018-01-30T11:54:29.327Z,99940.30
2018-01-30T11:56:57.346Z,99934.23
2018-01-30T11:59:25.078Z,99936.07
2018-01-30T12:01:52.819Z,99944.34
2018-01-30T12:04:20.628Z,99946.45
2018-01-30T12:06:48.707Z,99935.25
2018-01-30T12:09:16.622Z,99948.44
2018-01-30T12:11:46.937Z,99951.27
2018-01-30T12:14:15.027Z,99956.31
2018-01-30T12:16:43.398Z,99953.91
2018-01-30T12:19:11.198Z,99961.09
2018-01-30T12:21:39.401Z,99960.89
2018-01-30T12:24:07.310Z,99960.77
2018-01-30T12:26:35.183Z,99956.30
2018-01-30T12:29:03.027Z,99961.92
2018-01-30T12:31:30.904Z,99962.25
2018-01-30T12:33:58.658Z,99956.78
2018-01-30T12:36:26.731Z,99963.57
2018-01-30T12:38:54.804Z,99960.33
2018-01-30T12:41:22.677Z,99966.12
2018-01-30T12:43:50.645Z,99971.06
2018-01-30T12:46:19.075Z,99967.67
2018-01-30T12:48:47.088Z,99969.98
2018-01-30T12:51:15.041Z,99971.45
2018-01-30T12:53:43.231Z,99971.13
2018-01-30T12:56:11.601Z,99975.22
2018-01-30T12:58:40.290Z,99976.81
2018-01-30T13:01:08.406Z,99975.46
2018-01-30T13:03:36.795Z,99980.31
2018-01-30T13:06:04.962Z,99985.31
2018-01-30T13:08:33.195Z,99984.54
2018-01-30T13:11:02.402Z,99993.27
2018-01-30T13:13:30.255Z,99997.80
2018-01-30T13:15:58.943Z,100001.31
2018-01-30T13:18:26.793Z,99997.83
2018-01-30T13:20:54.789Z,99999.81
2018-01-30T13:23:22.568Z,100004.23
2018-01-30T13:25:50.311Z,100007.54
2018-01-30T13:28:18.982Z,100017.11
2018-01-30T13:30:46.754Z,100019.98
2018-01-30T13:33:14.823Z,100016.70
2018-01-30T13:35:42.937Z,100030.03
2018-01-30T13:38:10.840Z,100024.80
2018-01-30T13:40:39.037Z,100029.08
2018-01-30T13:43:07.152Z,100033.09
2018-01-30T13:45:34.869Z,100048.65
2018-01-30T13:48:03.129Z,100040.48
2018-01-30T13:50:31.209Z,100041.05
2018-01-30T13:52:59.087Z,100045.09
2018-01-30T13:55:26.937Z,100053.16
2018-01-30T13:57:54.790Z,100047.56
2018-01-30T14:00:22.672Z,100044.02
2018-01-30T14:02:51.362Z,100057.09
2018-01-30T14:05:19.139Z,100056.53
2018-01-30T14:07:47.906Z,100056.81
2018-01-30T14:10:16.676Z,100060.28
2018-01-30T14:12:44.636Z,100068.88
2018-01-30T14:15:12.909Z,100069.98
2018-01-30T14:17:40.710Z,100071.53
2018-01-30T14:20:09.581Z,100074.32
2018-01-30T14:22:38.082Z,100078.47
2018-01-30T14:25:07.075Z,100078.95
2018-01-30T14:27:37.058Z,100085.42
2018-01-30T14:30:05.155Z,100089.70
2018-01-30T14:32:33.340Z,100084.89
2018-01-30T14:35:01.126Z,100095.34
2018-01-30T14:37:29.215Z,100100.10
2018-01-30T14:39:57.829Z,100105.69
2018-01-30T14:42:25.511Z,100106.83
2018-01-30T14:44:53.844Z,100111.94
2018-01-30T14:47:23.150Z,100108.63
2018-01-30T14:49:52.041Z,100115.48
2018-01-30T14:52:19.705Z,100125.32
2018-01-30T14:54:48.376Z,100124.22
2018-01-30T14:57:16.093Z,100121.33
2018-01-30T14:59:44.295Z,100122.86
2018-01-30T15:02:11.945Z,100124.81
2018-01-30T15:04:39.614Z,100126.31
2018-01-30T15:07:07.701Z,100137.92
2018-01-30T15:09:36.646Z,100134.59
2018-01-30T15:12:04.615Z,100140.03
2018-01-30T15:14:33.528Z,100141.06
2018-01-30T15:17:01.783Z,100141.22
2018-01-30T15:19:29.736Z,100143.21
2018-01-30T15:21:57.625Z,100149.97
2018-01-30T15:24:25.396Z,100157.11
2018-01-30T15:26:53.206Z,100154.20
2018-01-30T15:29:21.359Z,100150.84
2018-01-30T15:31:49.438Z,100154.06
2018-01-30T15:34:18.156Z,100156.86
2018-01-30T15:36:46.140Z,100153.03
2018-01-30T15:39:14.285Z,100152.26
2018-01-30T15:41:42.305Z,100154.16
2018-01-30T15:44:10.453Z,100150.72
2018-01-30T15:46:39.246Z,100146.04
2018-01-30T15:49:07.633Z,100158.40
2018-01-30T15:51:36.924Z,100158.55
2018-01-30T15:54:04.755Z,100146.78
2018-01-30T15:56:33.081Z,100163.09
2018-01-30T15:59:00.872Z,100162.27
2018-01-30T16:01:28.951Z,100166.77
2018-01-30T16:03:57.082Z,100164.64
2018-01-30T16:06:25.400Z,100178.77
2018-01-30T16:08:53.421Z,100185.00
2018-01-30T16:11:23.417Z,100184.65
2018-01-30T16:13:51.417Z,100187.78
2018-01-30T16:16:19.681Z,100195.72
2018-01-30T16:18:47.871Z,100201.48
2018-01-30T16:21:16.102Z,100201.98
2018-01-30T16:23:44.204Z,100204.23
2018-01-30T16:26:12.134Z,100206.94
2018-01-30T16:28:40.457Z,100214.84
2018-01-30T16:31:09.013Z,100219.75
2018-01-30T16:33:37.056Z,100225.52
2018-01-30T16:36:05.273Z,100229.47
2018-01-30T16:38:33.114Z,100230.86
2018-01-30T16:41:01.414Z,100233.09
2018-01-30T16:43:29.544Z,100242.34
2018-01-30T16:45:57.567Z,100242.42
2018-01-30T16:48:25.638Z,100253.80
2018-01-30T16:50:53.891Z,100246.37
2018-01-30T16:53:24.556Z,100258.17
2018-01-30T16:55:52.913Z,100251.13
2018-01-30T16:58:21.033Z,100262.98
2018-01-30T17:00:49.265Z,100262.94
2018-01-30T17:03:17.621Z,100263.41
2018-01-30T17:05:45.611Z,100271.77
2018-01-30T17:08:14.507Z,100273.12
2018-01-30T17:10:42.743Z,100282.36
2018-01-30T17:13:10.832Z,100280.69
2018-01-30T17:15:38.913Z,100278.95
2018-01-30T17:18:06.943Z,100290.44
2018-01-30T17:20:35.003Z,100300.58
2018-01-30T17:23:03.233Z,100309.39
2018-01-30T17:25:31.917Z,100318.21
2018-01-30T17:28:00.783Z,100322.63
2018-01-30T17:30:28.767Z,100325.72
2018-01-30T17:32:57.049Z,100331.02
2018-01-30T17:35:25.576Z,100332.83
2018-01-30T17:37:53.663Z,100335.48
2018-01-30T17:40:22.256Z,100330.69
2018-01-30T17:42:50.360Z,100333.36
2018-01-30T17:45:19.564Z,100328.09
2018-01-30T17:47:48.136Z,100330.66
2018-01-30T17:50:17.029Z,100336.34
2018-01-30T17:52:45.160Z,100338.09
2018-01-30T17:55:13.260Z,100344.20
2018-01-30T17:57:41.148Z,100345.06
2018-01-30T18:00:09.534Z,100338.48
2018-01-30T18:02:38.297Z,100338.87
2018-01-30T18:05:06.163Z,100348.05
2018-01-30T18:07:35.267Z,100341.93
2018-01-30T18:10:03.970Z,100336.73
2018-01-30T18:12:32.735Z,100349.89
2018-01-30T18:15:00.876Z,100354.23
2018-01-30T18:17:29.614Z,100363.05
2018-01-30T18:19:57.879Z,100360.88
2018-01-30T18:22:25.897Z,100360.88
2018-01-30T18:24:54.113Z,100362.59
2018-01-30T18:27:22.053Z,100366.97
2018-01-30T18:29:50.868Z,100372.20
2018-01-30T18:32:19.353Z,100367.39
2018-01-30T18:34:47.424Z,100380.13
2018-01-30T18:37:15.505Z,100376.21
2018-01-30T18:39:43.574Z,100374.44
2018-01-30T18:42:12.097Z,100374.05
2018-01-30T18:44:41.150Z,100374.05
2018-01-30T18:47:09.207Z,100375.39
2018-01-30T18:49:37.870Z,100385.98
2018-01-30T18:52:06.760Z,100385.98
2018-01-30T18:54:34.827Z,100390.39
2018-01-30T18:57:02.993Z,100397.00
2018-01-30T18:59:32.465Z,100402.76
2018-01-30T19:02:01.436Z,100405.39
2018-01-30T19:04:29.687Z,100407.59
2018-01-30T19:06:57.770Z,100411.58
2018-01-30T19:09:27.183Z,100414.73
2018-01-30T19:11:55.562Z,100413.42
2018-01-30T19:14:23.941Z,100413.02
2018-01-30T19:16:53.230Z,100419.17
2018-01-30T19:19:21.620Z,100421.84
2018-01-30T19:21:50.120Z,100423.61
2018-01-30T19:24:18.112Z,100427.66
2018-01-30T19:26:47.059Z,100435.55
2018-01-30T19:29:15.431Z,100443.54
2018-01-30T19:31:43.499Z,100451.00
2018-01-30T19:34:12.974Z,100460.30
2018-01-30T19:36:42.102Z,100470.43
2018-01-30T19:39:10.233Z,100475.30
2018-01-30T19:41:38.433Z,100477.13
2018-01-30T19:44:06.959Z,100478.51
2018-01-30T19:46:36.729Z,100474.98
2018-01-30T19:49:04.720Z,100475.52
2018-01-30T19:51:32.437Z,100475.52
2018-01-30T19:54:00.625Z,100481.66
2018-01-30T19:56:29.123Z,100484.78
2018-01-30T19:58:57.232Z,100485.69
2018-01-30T20:01:25.459Z,100490.52
2018-01-30T20:03:53.541Z,100486.19
2018-01-30T20:06:21.477Z,100499.36
2018-01-30T20:08:49.670Z,100496.34
2018-01-30T20:11:17.646Z,100501.14
2018-01-30T20:13:45.778Z,100505.97
2018-01-30T20:16:13.716Z,100509.09
2018-01-30T20:18:41.957Z,100507.86
2018-01-30T20:21:10.323Z,100514.86
2018-01-30T20:23:40.371Z,100517.55
2018-01-30T20:26:09.178Z,100526.76
2018-01-30T20:28:37.269Z,100522.84
2018-01-30T20:31:06.730Z,100523.33
2018-01-30T20:33:34.628Z,100528.62
2018-01-30T20:36:03.345Z,100529.05
2018-01-30T20:38:32.860Z,100533.45
2018-01-30T20:41:01.347Z,100534.83
2018-01-30T20:43:31.313Z,100534.88
2018-01-30T20:45:59.328Z,100530.56
2018-01-30T20:48:27.469Z,100531.91
2018-01-30T20:50:55.595Z,100536.77
2018-01-30T20:53:23.829Z,100530.62
2018-01-30T20:55:51.742Z,100533.77
2018-01-30T20:58:20.085Z,100532.91
2018-01-30T21:00:48.074Z,100536.02
2018-01-30T21:03:16.570Z,100538.71
2018-01-30T21:05:44.379Z,100540.48
2018-01-30T21:08:12.721Z,100540.56
2018-01-30T21:10:41.082Z,100535.73
2018-01-30T21:13:09.326Z,100532.66
2018-01-30T21:15:37.392Z,100535.73
2018-01-30T21:18:06.227Z,100529.62
2018-01-30T21:20:34.907Z,100528.27
2018-01-30T21:23:03.039Z,100532.73
2018-01-30T21:25:31.108Z,100523.14
2018-01-30T21:27:59.421Z,100517.48
2018-01-30T21:30:27.562Z,100517.50
2018-01-30T21:32:55.626Z,100518.36
2018-01-30T21:35:24.605Z,100518.82
2018-01-30T21:37:52.374Z,100517.50
2018-01-30T21:40:20.394Z,100519.64
2018-01-30T21:42:48.780Z,100524.02
2018-01-30T21:45:16.856Z,100524.08
2018-01-30T21:47:45.221Z,100514.91
2018-01-30T21:50:15.847Z,100508.33
2018-01-30T21:52:45.429Z,100500.95
2018-01-30T21:55:13.621Z,100505.42
2018-01-30T21:57:41.685Z,100499.30
2018-01-30T22:00:09.959Z,100496.27
2018-01-30T22:02:38.421Z,100493.22
2018-01-30T22:05:06.540Z,100485.33
2018-01-30T22:07:35.009Z,100487.62
2018-01-30T22:10:02.887Z,100484.59
2018-01-30T22:12:31.513Z,100486.79
2018-01-30T22:14:59.418Z,100494.27
2018-01-30T22:17:27.487Z,100487.33
2018-01-30T22:19:56.303Z,100492.24
2018-01-30T22:22:24.441Z,100494.44
2018-01-30T22:24:52.516Z,100497.55
2018-01-30T22:27:20.576Z,100499.30
2018-01-30T22:29:48.680Z,100499.32
2018-01-30T22:32:18.386Z,100508.14
2018-01-30T22:34:47.246Z,100501.66
2018-01-30T22:37:15.346Z,100502.06
2018-01-30T22:39:43.510Z,100496.38
2018-01-30T22:42:11.643Z,100499.52
2018-01-30T22:44:39.757Z,100500.77
